To NAV CANADA Home Page Login to a new session Search on AWWS site Disclaimer Vers la page française équivalente Tips FAQ What's new on the site To the Forecasts and Observations / NOTAM section To "File a Flight Plan" website Publications and other links Update of the User's profile FIC Telephone Numbers My Weather Data Folder Route Weather Data Regional Weather Data Local Weather Data To the Forecasts and Observations / NOTAM section
Request Generated 06/25/2018 at 09:36:17 UTC . Weather information available at that time is displayed.


Save this request

METAR/TAF

KAMLOOPS/BC    

SPECI CYKA 250919Z CCA 29015G23KT 35SM -SHRA BKN060 OVC100 16/13
A2974 RMK SC5AC3 CVCTV CLD EMBD PRESRR SLP067 DENSITY ALT 1700FT=
SPECI CYKA 250919Z 29015G23KT 35SM -SHRA BKN060 OVC100 16/13 A2974
RMK SC5AC3 PRESRR SLP067 DENSITY ALT 1700FT=
METAR CYKA 250900Z 27020G33KT 40SM SCT075 BKN120 BKN260 18/12 A2969
RMK AC4AC2CI1 SLP049 DENSITY ALT 2000FT=
METAR CYKA 250800Z 27018KT 40SM BKN100 BKN260 19/12 A2964 RMK AC5CI2
PRESRR SLP034 DENSITY ALT 2300FT=
METAR CYKA 250700Z 28026G36KT 40SM BKN100 BKN260 21/12 A2960 RMK
AC6CI1 LTGCG DIST NW PRESRR SLP020 DENSITY ALT 2500FT=

TAF AMD CYKA 250733Z 2507/2519 27025G35KT P6SM SCT080 BKN120 TEMPO
2507/2509 P6SM TSRA BKN090CB
FM250900 23012G22KT P6SM -SHRA SCT030 OVC060 TEMPO 2509/2512 3SM
SHRA BR SCT015 OVC030
BECMG 2509/2511 25012KT
FM251300 25012KT P6SM BKN060 TEMPO 2516/2519 P6SM -SHRA PROB30
2516/2519 5SM TSRA BKN040CB
RMK NXT FCST BY 251300Z=

CLINTON BC/AUTO OBS    

CWCL - METAR not available

CWCL - No TAF is issued for this station

LYTTON BC/OBS    (show WxCam)

METAR CWLY 250900Z AUTO 21012G25KT 170V280 9SM -RA FEW060 OVC090
15/12 A2978 RMK SLP084 DENSITY ALT 1000FT=
SPECI CWLY 250822Z AUTO 22011G25KT 180V250 9SM -RA BKN095 OVC130
15/12 A2974 RMK SLP070 DENSITY ALT 1100FT=
SPECI CWLY 250809Z AUTO 22012G31KT 170V250 9SM BKN095 OVC120 15/12
A2974 RMK SLP070 DENSITY ALT 1100FT=
METAR CWLY 250800Z AUTO 20018G28KT 160V240 9SM -RA FEW065 BKN092
OVC120 16/13 A2974 RMK SLP070 DENSITY ALT 1100FT=
SPECI CWLY 250739Z AUTO 20012G22KT 170V280 6SM -RA SCT048 BKN070
OVC089 16/13 A2975 RMK SLP073 DENSITY ALT 1100FT=
SPECI CWLY 250734Z AUTO 20012G20KT 140V280 3SM RA BKN048 BKN070
OVC082 16/13 A2974 RMK SLP072 DENSITY ALT 1200FT=
SPECI CWLY 250729Z AUTO 23009G22KT 160V260 3SM +RA BKN048 OVC065
16/13 A2974 RMK SLP071 DENSITY ALT 1200FT=
SPECI CWLY 250722Z AUTO 21012G22KT 160V270 5SM RA BR FEW035 SCT055
OVC069 16/14 A2974 RMK SLP072 DENSITY ALT 1200FT=
METAR CWLY 250700Z AUTO VRB04KT 6SM RA BR FEW055 BKN072 OVC084 16/15
A2975 RMK PRESRR SLP073 DENSITY ALT 1200FT=

CWLY - No TAF is issued for this station

CLINTON/BLEIBLER RANCH/BC    (show WxCam)

SPECI CYIN 250918Z AUTO 07004KT 040V110 9SM BKN007 BKN018 OVC029
10/09 A2976 RMK SLP064 DENSITY ALT 4100FT=
METAR CYIN 250900Z AUTO 02004KT 320V070 9SM -RA BKN007 OVC010 10/09
A2976 RMK SLP064 DENSITY ALT 4100FT=
SPECI CYIN 250837Z AUTO VRB02KT 9SM -RA BKN007 OVC013 10/09 A2977 RMK
SLP069 DENSITY ALT 4100FT=
SPECI CYIN 250834Z AUTO 34003KT 9SM -RA SCT007 BKN013 OVC075 10/09
A2977 RMK SLP069 DENSITY ALT 4100FT=
SPECI CYIN 250817Z AUTO VRB02KT 9SM -RA BKN010 BKN060 OVC075 10/09
A2978 RMK PRESRR SLP072 DENSITY ALT 4100FT=
SPECI CYIN 250807Z AUTO 00000KT 9SM -RA SCT008 BKN060 OVC074 10/09
A2977 RMK SLP069 DENSITY ALT 4100FT=
METAR CYIN 250800Z AUTO VRB02KT 8SM -RA BKN008 BKN055 OVC071 10/09
A2976 RMK SLP065 DENSITY ALT 4100FT=
SPECI CYIN 250725Z AUTO 34005KT 6SM -RA BR BKN006 BKN010 OVC013 10/10
A2978 RMK SLP074 DENSITY ALT 4100FT=
SPECI CYIN 250715Z AUTO 34007KT 4SM RA BR BKN006 OVC010 10/10 A2977
RMK PRESFR SLP073 DENSITY ALT 4100FT=
SPECI CYIN 250709Z AUTO 34009KT 310V020 5SM +RA BR OVC006 10/10 A2978
RMK SLP073 DENSITY ALT 4100FT=
SPECI CYIN 250706Z AUTO 33005KT 310V020 6SM +RA BR OVC006 11/10 A2979
RMK SLP079 DENSITY ALT 4100FT=
METAR CYIN 250700Z AUTO 01006KT 6SM RA BR OVC006 11/10 A2980 RMK
SLP080 DENSITY ALT 4100FT=

CYIN - No TAF is issued for this station



Your time UTC time
Weather data provided by Environment Canada and NAV CANADA